sensor_id;sensor_type;location;lat;lon;timestamp;P1;durP1;ratioP1;P2;durP2;ratioP2
22955;SDS011;40888;48.148;11.526;2023-07-02T00:00:02;2.75;;;2.45;;
22955;SDS011;40888;48.148;11.526;2023-07-02T00:02:30;4.38;;;2.60;;
22955;SDS011;40888;48.148;11.526;2023-07-02T00:04:56;4.55;;;2.63;;
22955;SDS011;40888;48.148;11.526;2023-07-02T00:07:22;3.75;;;2.50;;
22955;SDS011;40888;48.148;11.526;2023-07-02T00:09:48;2.72;;;2.50;;
22955;SDS011;40888;48.148;11.526;2023-07-02T00:12:14;3.72;;;2.47;;
22955;SDS011;40888;48.148;11.526;2023-07-02T00:14:40;6.18;;;2.53;;
22955;SDS011;40888;48.148;11.526;2023-07-02T00:17:05;3.05;;;2.40;;
22955;SDS011;40888;48.148;11.526;2023-07-02T00:19:31;2.72;;;2.53;;
22955;SDS011;40888;48.148;11.526;2023-07-02T00:21:57;3.20;;;2.58;;
22955;SDS011;40888;48.148;11.526;2023-07-02T00:24:26;3.10;;;2.42;;
22955;SDS011;40888;48.148;11.526;2023-07-02T00:26:52;2.92;;;2.72;;
22955;SDS011;40888;48.148;11.526;2023-07-02T00:29:17;3.90;;;2.65;;
22955;SDS011;40888;48.148;11.526;2023-07-02T00:31:43;3.42;;;2.65;;
22955;SDS011;40888;48.148;11.526;2023-07-02T00:34:09;2.55;;;2.35;;
22955;SDS011;40888;48.148;11.526;2023-07-02T00:36:35;2.47;;;2.28;;
22955;SDS011;40888;48.148;11.526;2023-07-02T00:39:01;2.63;;;2.42;;
22955;SDS011;40888;48.148;11.526;2023-07-02T00:41:26;3.20;;;2.22;;
22955;SDS011;40888;48.148;11.526;2023-07-02T00:43:52;2.88;;;2.40;;
22955;SDS011;40888;48.148;11.526;2023-07-02T00:46:20;2.83;;;2.05;;
22955;SDS011;40888;48.148;11.526;2023-07-02T00:48:47;2.88;;;2.35;;
22955;SDS011;40888;48.148;11.526;2023-07-02T00:51:14;2.58;;;2.17;;
22955;SDS011;40888;48.148;11.526;2023-07-02T00:53:43;3.38;;;1.98;;
22955;SDS011;40888;48.148;11.526;2023-07-02T00:56:11;5.20;;;2.20;;
22955;SDS011;40888;48.148;11.526;2023-07-02T00:58:40;1.98;;;1.70;;
22955;SDS011;40888;48.148;11.526;2023-07-02T01:01:23;3.23;;;1.90;;
22955;SDS011;40888;48.148;11.526;2023-07-02T01:03:55;5.00;;;1.77;;
22955;SDS011;40888;48.148;11.526;2023-07-02T01:06:29;2.10;;;1.67;;
22955;SDS011;40888;48.148;11.526;2023-07-02T01:08:57;2.42;;;1.73;;
22955;SDS011;40888;48.148;11.526;2023-07-02T01:11:28;2.40;;;1.92;;
22955;SDS011;40888;48.148;11.526;2023-07-02T01:14:01;3.78;;;1.95;;
22955;SDS011;40888;48.148;11.526;2023-07-02T01:16:30;1.67;;;1.58;;
22955;SDS011;40888;48.148;11.526;2023-07-02T01:18:58;2.47;;;1.90;;
22955;SDS011;40888;48.148;11.526;2023-07-02T01:21:29;2.57;;;1.90;;
22955;SDS011;40888;48.148;11.526;2023-07-02T01:23:57;2.30;;;1.90;;
22955;SDS011;40888;48.148;11.526;2023-07-02T01:26:27;2.57;;;1.53;;
22955;SDS011;40888;48.148;11.526;2023-07-02T01:29:00;4.17;;;2.00;;
22955;SDS011;40888;48.148;11.526;2023-07-02T01:31:40;1.77;;;1.67;;
22955;SDS011;40888;48.148;11.526;2023-07-02T01:34:06;2.50;;;1.80;;
22955;SDS011;40888;48.148;11.526;2023-07-02T01:36:33;1.50;;;1.40;;
22955;SDS011;40888;48.148;11.526;2023-07-02T01:38:59;3.38;;;1.45;;
22955;SDS011;40888;48.148;11.526;2023-07-02T01:41:25;2.15;;;1.95;;
22955;SDS011;40888;48.148;11.526;2023-07-02T01:43:50;1.77;;;1.67;;
22955;SDS011;40888;48.148;11.526;2023-07-02T01:46:16;1.75;;;1.65;;
22955;SDS011;40888;48.148;11.526;2023-07-02T01:48:42;1.70;;;1.60;;
22955;SDS011;40888;48.148;11.526;2023-07-02T01:51:07;1.40;;;1.30;;
22955;SDS011;40888;48.148;11.526;2023-07-02T01:53:33;1.70;;;1.60;;
22955;SDS011;40888;48.148;11.526;2023-07-02T01:55:59;1.63;;;1.52;;
22955;SDS011;40888;48.148;11.526;2023-07-02T01:58:25;2.67;;;1.93;;
22955;SDS011;40888;48.148;11.526;2023-07-02T02:00:50;4.70;;;1.65;;
22955;SDS011;40888;48.148;11.526;2023-07-02T02:03:17;1.80;;;1.70;;
22955;SDS011;40888;48.148;11.526;2023-07-02T02:05:43;2.10;;;1.90;;
22955;SDS011;40888;48.148;11.526;2023-07-02T02:08:08;2.60;;;1.50;;
22955;SDS011;40888;48.148;11.526;2023-07-02T02:10:34;1.90;;;1.80;;
22955;SDS011;40888;48.148;11.526;2023-07-02T02:13:00;1.80;;;1.70;;
22955;SDS011;40888;48.148;11.526;2023-07-02T02:15:25;4.35;;;1.67;;
22955;SDS011;40888;48.148;11.526;2023-07-02T02:17:51;2.00;;;1.90;;
22955;SDS011;40888;48.148;11.526;2023-07-02T02:20:17;1.70;;;1.60;;
22955;SDS011;40888;48.148;11.526;2023-07-02T02:22:43;1.93;;;1.57;;
22955;SDS011;40888;48.148;11.526;2023-07-02T02:25:09;2.83;;;1.83;;
22955;SDS011;40888;48.148;11.526;2023-07-02T02:27:34;2.03;;;1.92;;
22955;SDS011;40888;48.148;11.526;2023-07-02T02:30:00;1.80;;;1.70;;
22955;SDS011;40888;48.148;11.526;2023-07-02T02:32:26;2.03;;;1.70;;
22955;SDS011;40888;48.148;11.526;2023-07-02T02:34:52;2.13;;;1.60;;
22955;SDS011;40888;48.148;11.526;2023-07-02T02:37:18;3.63;;;2.00;;
22955;SDS011;40888;48.148;11.526;2023-07-02T02:39:46;3.17;;;1.85;;
22955;SDS011;40888;48.148;11.526;2023-07-02T02:42:12;2.10;;;1.90;;
22955;SDS011;40888;48.148;11.526;2023-07-02T02:44:38;2.03;;;1.30;;
22955;SDS011;40888;48.148;11.526;2023-07-02T02:47:04;3.00;;;1.80;;
22955;SDS011;40888;48.148;11.526;2023-07-02T02:49:30;1.63;;;1.53;;
22955;SDS011;40888;48.148;11.526;2023-07-02T02:51:56;2.13;;;1.52;;
22955;SDS011;40888;48.148;11.526;2023-07-02T02:54:22;2.30;;;1.90;;
22955;SDS011;40888;48.148;11.526;2023-07-02T02:56:48;1.87;;;1.77;;
22955;SDS011;40888;48.148;11.526;2023-07-02T02:59:13;1.83;;;1.73;;
22955;SDS011;40888;48.148;11.526;2023-07-02T03:01:39;3.05;;;1.65;;
22955;SDS011;40888;48.148;11.526;2023-07-02T03:04:05;1.52;;;1.42;;
22955;SDS011;40888;48.148;11.526;2023-07-02T03:06:33;1.63;;;1.52;;
22955;SDS011;40888;48.148;11.526;2023-07-02T03:09:00;3.08;;;1.70;;
22955;SDS011;40888;48.148;11.526;2023-07-02T03:11:26;2.78;;;1.83;;
22955;SDS011;40888;48.148;11.526;2023-07-02T03:13:51;1.80;;;1.70;;
22955;SDS011;40888;48.148;11.526;2023-07-02T03:16:17;2.03;;;1.80;;
22955;SDS011;40888;48.148;11.526;2023-07-02T03:18:43;4.07;;;2.03;;
22955;SDS011;40888;48.148;11.526;2023-07-02T03:21:08;2.70;;;2.23;;
22955;SDS011;40888;48.148;11.526;2023-07-02T03:23:35;2.30;;;2.10;;
22955;SDS011;40888;48.148;11.526;2023-07-02T03:26:02;3.23;;;2.10;;
22955;SDS011;40888;48.148;11.526;2023-07-02T03:28:27;3.13;;;2.27;;
22955;SDS011;40888;48.148;11.526;2023-07-02T03:30:53;4.03;;;2.30;;
22955;SDS011;40888;48.148;11.526;2023-07-02T03:33:19;5.63;;;2.30;;
22955;SDS011;40888;48.148;11.526;2023-07-02T03:35:44;3.13;;;2.30;;
22955;SDS011;40888;48.148;11.526;2023-07-02T03:38:10;2.80;;;2.57;;
22955;SDS011;40888;48.148;11.526;2023-07-02T03:40:36;2.53;;;2.33;;
22955;SDS011;40888;48.148;11.526;2023-07-02T03:43:02;3.13;;;2.70;;
22955;SDS011;40888;48.148;11.526;2023-07-02T03:45:27;4.17;;;3.07;;
22955;SDS011;40888;48.148;11.526;2023-07-02T03:47:53;3.00;;;2.70;;
22955;SDS011;40888;48.148;11.526;2023-07-02T03:50:19;7.47;;;2.97;;
22955;SDS011;40888;48.148;11.526;2023-07-02T03:52:44;3.57;;;2.97;;
22955;SDS011;40888;48.148;11.526;2023-07-02T03:55:10;3.20;;;2.90;;
22955;SDS011;40888;48.148;11.526;2023-07-02T03:57:36;4.80;;;3.53;;
22955;SDS011;40888;48.148;11.526;2023-07-02T04:00:02;3.97;;;3.50;;
22955;SDS011;40888;48.148;11.526;2023-07-02T04:02:30;3.83;;;3.40;;
22955;SDS011;40888;48.148;11.526;2023-07-02T04:04:55;3.43;;;3.10;;
22955;SDS011;40888;48.148;11.526;2023-07-02T04:07:21;5.73;;;3.67;;
22955;SDS011;40888;48.148;11.526;2023-07-02T04:09:47;5.40;;;3.47;;
22955;SDS011;40888;48.148;11.526;2023-07-02T04:12:13;3.70;;;3.23;;
22955;SDS011;40888;48.148;11.526;2023-07-02T04:14:38;3.90;;;3.60;;
22955;SDS011;40888;48.148;11.526;2023-07-02T04:17:04;3.57;;;3.27;;
22955;SDS011;40888;48.148;11.526;2023-07-02T04:19:30;4.63;;;3.47;;
22955;SDS011;40888;48.148;11.526;2023-07-02T04:21:56;5.37;;;3.63;;
22955;SDS011;40888;48.148;11.526;2023-07-02T04:24:22;5.77;;;3.70;;
22955;SDS011;40888;48.148;11.526;2023-07-02T04:26:47;5.17;;;3.73;;
22955;SDS011;40888;48.148;11.526;2023-07-02T04:29:13;3.40;;;3.10;;
22955;SDS011;40888;48.148;11.526;2023-07-02T04:31:39;4.60;;;3.80;;
22955;SDS011;40888;48.148;11.526;2023-07-02T04:34:05;4.13;;;3.80;;
22955;SDS011;40888;48.148;11.526;2023-07-02T04:36:31;5.23;;;3.77;;
22955;SDS011;40888;48.148;11.526;2023-07-02T04:38:57;4.23;;;3.80;;
22955;SDS011;40888;48.148;11.526;2023-07-02T04:41:22;6.10;;;3.63;;
22955;SDS011;40888;48.148;11.526;2023-07-02T04:43:48;3.93;;;3.60;;
22955;SDS011;40888;48.148;11.526;2023-07-02T04:46:14;5.57;;;4.10;;
22955;SDS011;40888;48.148;11.526;2023-07-02T04:48:40;5.90;;;3.83;;
22955;SDS011;40888;48.148;11.526;2023-07-02T04:51:05;4.10;;;3.43;;
22955;SDS011;40888;48.148;11.526;2023-07-02T04:53:31;4.17;;;3.77;;
22955;SDS011;40888;48.148;11.526;2023-07-02T04:55:57;4.73;;;3.90;;
22955;SDS011;40888;48.148;11.526;2023-07-02T04:58:23;6.77;;;3.97;;
22955;SDS011;40888;48.148;11.526;2023-07-02T05:00:49;5.67;;;3.77;;
22955;SDS011;40888;48.148;11.526;2023-07-02T05:03:14;5.43;;;4.10;;
22955;SDS011;40888;48.148;11.526;2023-07-02T05:05:40;5.53;;;3.73;;
22955;SDS011;40888;48.148;11.526;2023-07-02T05:08:06;4.00;;;3.60;;
22955;SDS011;40888;48.148;11.526;2023-07-02T05:10:32;5.30;;;3.80;;
22955;SDS011;40888;48.148;11.526;2023-07-02T05:12:57;6.73;;;3.73;;
22955;SDS011;40888;48.148;11.526;2023-07-02T05:15:23;4.57;;;3.43;;
22955;SDS011;40888;48.148;11.526;2023-07-02T05:17:49;4.47;;;3.80;;
22955;SDS011;40888;48.148;11.526;2023-07-02T05:20:15;4.53;;;3.80;;
22955;SDS011;40888;48.148;11.526;2023-07-02T05:22:41;4.53;;;3.37;;
22955;SDS011;40888;48.148;11.526;2023-07-02T05:25:06;3.93;;;3.40;;
22955;SDS011;40888;48.148;11.526;2023-07-02T05:27:33;5.10;;;4.00;;
22955;SDS011;40888;48.148;11.526;2023-07-02T05:29:58;4.80;;;3.33;;
22955;SDS011;40888;48.148;11.526;2023-07-02T05:32:24;5.10;;;3.40;;
22955;SDS011;40888;48.148;11.526;2023-07-02T05:34:50;4.13;;;3.20;;
22955;SDS011;40888;48.148;11.526;2023-07-02T05:37:16;5.17;;;3.40;;
22955;SDS011;40888;48.148;11.526;2023-07-02T05:39:42;5.27;;;4.07;;
22955;SDS011;40888;48.148;11.526;2023-07-02T05:42:07;5.33;;;3.63;;
22955;SDS011;40888;48.148;11.526;2023-07-02T05:44:33;6.00;;;3.67;;
22955;SDS011;40888;48.148;11.526;2023-07-02T05:46:59;3.40;;;3.03;;
22955;SDS011;40888;48.148;11.526;2023-07-02T05:49:25;6.70;;;3.30;;
22955;SDS011;40888;48.148;11.526;2023-07-02T05:51:51;5.03;;;3.20;;
22955;SDS011;40888;48.148;11.526;2023-07-02T05:54:17;3.50;;;3.20;;
22955;SDS011;40888;48.148;11.526;2023-07-02T05:56:43;4.33;;;2.97;;
22955;SDS011;40888;48.148;11.526;2023-07-02T05:59:09;5.70;;;2.83;;
22955;SDS011;40888;48.148;11.526;2023-07-02T06:01:34;3.80;;;3.37;;
22955;SDS011;40888;48.148;11.526;2023-07-02T06:04:01;4.50;;;3.73;;
22955;SDS011;40888;48.148;11.526;2023-07-02T06:06:27;5.00;;;3.23;;
22955;SDS011;40888;48.148;11.526;2023-07-02T06:08:53;3.47;;;2.73;;
22955;SDS011;40888;48.148;11.526;2023-07-02T06:11:18;3.23;;;2.77;;
22955;SDS011;40888;48.148;11.526;2023-07-02T06:13:44;6.17;;;4.07;;
22955;SDS011;40888;48.148;11.526;2023-07-02T06:16:10;5.10;;;3.10;;
22955;SDS011;40888;48.148;11.526;2023-07-02T06:18:36;5.03;;;3.27;;
22955;SDS011;40888;48.148;11.526;2023-07-02T06:21:01;2.80;;;2.60;;
22955;SDS011;40888;48.148;11.526;2023-07-02T06:23:29;3.07;;;2.77;;
22955;SDS011;40888;48.148;11.526;2023-07-02T06:25:55;3.27;;;2.87;;
22955;SDS011;40888;48.148;11.526;2023-07-02T06:28:27;3.70;;;2.87;;
22955;SDS011;40888;48.148;11.526;2023-07-02T06:30:53;3.40;;;3.10;;
22955;SDS011;40888;48.148;11.526;2023-07-02T06:33:19;3.53;;;2.77;;
22955;SDS011;40888;48.148;11.526;2023-07-02T06:35:44;4.07;;;3.00;;
22955;SDS011;40888;48.148;11.526;2023-07-02T06:38:10;3.93;;;2.80;;
22955;SDS011;40888;48.148;11.526;2023-07-02T06:40:36;4.60;;;2.80;;
22955;SDS011;40888;48.148;11.526;2023-07-02T06:43:01;3.87;;;3.00;;
22955;SDS011;40888;48.148;11.526;2023-07-02T06:45:27;5.17;;;3.10;;
22955;SDS011;40888;48.148;11.526;2023-07-02T06:47:53;4.07;;;3.23;;
22955;SDS011;40888;48.148;11.526;2023-07-02T06:50:18;5.70;;;3.13;;
22955;SDS011;40888;48.148;11.526;2023-07-02T06:52:44;5.00;;;3.03;;
22955;SDS011;40888;48.148;11.526;2023-07-02T06:55:10;4.17;;;3.27;;
22955;SDS011;40888;48.148;11.526;2023-07-02T06:57:41;5.83;;;3.40;;
22955;SDS011;40888;48.148;11.526;2023-07-02T07:00:09;8.47;;;3.70;;
22955;SDS011;40888;48.148;11.526;2023-07-02T07:02:35;5.50;;;3.53;;
22955;SDS011;40888;48.148;11.526;2023-07-02T07:05:01;7.93;;;3.53;;
22955;SDS011;40888;48.148;11.526;2023-07-02T07:07:29;7.13;;;3.67;;
22955;SDS011;40888;48.148;11.526;2023-07-02T07:09:55;6.03;;;4.07;;
22955;SDS011;40888;48.148;11.526;2023-07-02T07:12:20;4.70;;;3.43;;
22955;SDS011;40888;48.148;11.526;2023-07-02T07:14:46;5.13;;;4.27;;
22955;SDS011;40888;48.148;11.526;2023-07-02T07:17:12;3.37;;;3.03;;
22955;SDS011;40888;48.148;11.526;2023-07-02T07:19:38;6.17;;;3.90;;
22955;SDS011;40888;48.148;11.526;2023-07-02T07:22:03;5.13;;;3.83;;
22955;SDS011;40888;48.148;11.526;2023-07-02T07:24:29;6.57;;;4.40;;
22955;SDS011;40888;48.148;11.526;2023-07-02T07:26:55;5.37;;;4.80;;
22955;SDS011;40888;48.148;11.526;2023-07-02T07:29:21;5.27;;;4.67;;
22955;SDS011;40888;48.148;11.526;2023-07-02T07:31:47;5.90;;;4.33;;
22955;SDS011;40888;48.148;11.526;2023-07-02T07:34:13;6.07;;;5.20;;
22955;SDS011;40888;48.148;11.526;2023-07-02T07:36:39;5.43;;;4.60;;
22955;SDS011;40888;48.148;11.526;2023-07-02T07:39:04;7.50;;;4.90;;
22955;SDS011;40888;48.148;11.526;2023-07-02T07:41:30;4.20;;;3.80;;
22955;SDS011;40888;48.148;11.526;2023-07-02T07:43:56;5.07;;;4.57;;
22955;SDS011;40888;48.148;11.526;2023-07-02T07:46:21;7.47;;;4.90;;
22955;SDS011;40888;48.148;11.526;2023-07-02T07:48:47;6.03;;;4.43;;
22955;SDS011;40888;48.148;11.526;2023-07-02T07:51:13;7.27;;;5.30;;
22955;SDS011;40888;48.148;11.526;2023-07-02T07:53:39;6.83;;;5.13;;
22955;SDS011;40888;48.148;11.526;2023-07-02T07:56:05;7.50;;;5.80;;
22955;SDS011;40888;48.148;11.526;2023-07-02T07:58:31;5.50;;;4.90;;
22955;SDS011;40888;48.148;11.526;2023-07-02T08:01:00;6.40;;;5.57;;
22955;SDS011;40888;48.148;11.526;2023-07-02T08:03:25;5.23;;;4.73;;
22955;SDS011;40888;48.148;11.526;2023-07-02T08:05:51;5.37;;;4.70;;
22955;SDS011;40888;48.148;11.526;2023-07-02T08:08:17;6.63;;;5.00;;
22955;SDS011;40888;48.148;11.526;2023-07-02T08:10:43;5.50;;;4.80;;
22955;SDS011;40888;48.148;11.526;2023-07-02T08:13:10;5.60;;;4.77;;
22955;SDS011;40888;48.148;11.526;2023-07-02T08:15:37;5.27;;;4.63;;
22955;SDS011;40888;48.148;11.526;2023-07-02T08:18:03;4.40;;;4.00;;
22955;SDS011;40888;48.148;11.526;2023-07-02T08:20:29;5.07;;;4.03;;
22955;SDS011;40888;48.148;11.526;2023-07-02T08:22:54;5.00;;;4.17;;
22955;SDS011;40888;48.148;11.526;2023-07-02T08:25:20;6.57;;;4.83;;
22955;SDS011;40888;48.148;11.526;2023-07-02T08:27:50;6.10;;;4.33;;
22955;SDS011;40888;48.148;11.526;2023-07-02T08:30:16;4.37;;;3.70;;
22955;SDS011;40888;48.148;11.526;2023-07-02T08:32:42;4.03;;;3.73;;
22955;SDS011;40888;48.148;11.526;2023-07-02T08:35:08;4.53;;;3.77;;
22955;SDS011;40888;48.148;11.526;2023-07-02T08:37:33;4.17;;;3.67;;
22955;SDS011;40888;48.148;11.526;2023-07-02T08:39:59;6.13;;;3.43;;
22955;SDS011;40888;48.148;11.526;2023-07-02T08:42:25;4.70;;;3.60;;
22955;SDS011;40888;48.148;11.526;2023-07-02T08:44:54;4.03;;;3.63;;
22955;SDS011;40888;48.148;11.526;2023-07-02T08:47:22;3.90;;;3.50;;
22955;SDS011;40888;48.148;11.526;2023-07-02T08:49:48;3.20;;;2.90;;
22955;SDS011;40888;48.148;11.526;2023-07-02T08:52:14;3.47;;;3.17;;
22955;SDS011;40888;48.148;11.526;2023-07-02T08:54:40;3.93;;;3.43;;
22955;SDS011;40888;48.148;11.526;2023-07-02T08:57:08;3.53;;;3.23;;
22955;SDS011;40888;48.148;11.526;2023-07-02T08:59:35;4.90;;;3.97;;
22955;SDS011;40888;48.148;11.526;2023-07-02T09:02:01;3.77;;;3.47;;
22955;SDS011;40888;48.148;11.526;2023-07-02T09:04:27;3.50;;;3.20;;
22955;SDS011;40888;48.148;11.526;2023-07-02T09:07:06;4.03;;;3.50;;
22955;SDS011;40888;48.148;11.526;2023-07-02T09:09:34;3.97;;;3.57;;
22955;SDS011;40888;48.148;11.526;2023-07-02T09:12:21;4.10;;;3.63;;
22955;SDS011;40888;48.148;11.526;2023-07-02T09:14:57;5.23;;;3.83;;
22955;SDS011;40888;48.148;11.526;2023-07-02T09:17:29;3.53;;;3.13;;
22955;SDS011;40888;48.148;11.526;2023-07-02T09:19:57;3.60;;;3.30;;
22955;SDS011;40888;48.148;11.526;2023-07-02T09:22:25;3.77;;;3.47;;
22955;SDS011;40888;48.148;11.526;2023-07-02T09:24:52;3.63;;;3.33;;
22955;SDS011;40888;48.148;11.526;2023-07-02T09:27:34;4.83;;;3.47;;
22955;SDS011;40888;48.148;11.526;2023-07-02T09:30:11;5.40;;;3.10;;
22955;SDS011;40888;48.148;11.526;2023-07-02T09:32:40;4.57;;;3.90;;
22955;SDS011;40888;48.148;11.526;2023-07-02T09:35:09;3.80;;;3.50;;
22955;SDS011;40888;48.148;11.526;2023-07-02T09:37:35;4.90;;;3.20;;
22955;SDS011;40888;48.148;11.526;2023-07-02T09:40:02;3.33;;;3.03;;
22955;SDS011;40888;48.148;11.526;2023-07-02T09:42:32;7.57;;;3.63;;
22955;SDS011;40888;48.148;11.526;2023-07-02T09:45:00;16.40;;;10.87;;
22955;SDS011;40888;48.148;11.526;2023-07-02T09:47:27;3.57;;;3.27;;
22955;SDS011;40888;48.148;11.526;2023-07-02T09:49:59;4.00;;;3.60;;
22955;SDS011;40888;48.148;11.526;2023-07-02T09:52:28;4.30;;;3.43;;
22955;SDS011;40888;48.148;11.526;2023-07-02T09:54:54;4.50;;;3.77;;
22955;SDS011;40888;48.148;11.526;2023-07-02T09:57:20;3.30;;;3.03;;
22955;SDS011;40888;48.148;11.526;2023-07-02T09:59:46;4.83;;;3.20;;
22955;SDS011;40888;48.148;11.526;2023-07-02T10:02:12;4.63;;;4.10;;
22955;SDS011;40888;48.148;11.526;2023-07-02T10:04:39;3.63;;;3.33;;
22955;SDS011;40888;48.148;11.526;2023-07-02T10:07:12;4.07;;;3.73;;
22955;SDS011;40888;48.148;11.526;2023-07-02T10:09:50;3.73;;;3.43;;
22955;SDS011;40888;48.148;11.526;2023-07-02T10:14:43;5.07;;;4.07;;
22955;SDS011;40888;48.148;11.526;2023-07-02T10:17:09;4.23;;;3.80;;
22955;SDS011;40888;48.148;11.526;2023-07-02T10:19:35;5.83;;;4.30;;
22955;SDS011;40888;48.148;11.526;2023-07-02T10:22:01;4.67;;;3.80;;
22955;SDS011;40888;48.148;11.526;2023-07-02T10:24:28;6.23;;;3.90;;
22955;SDS011;40888;48.148;11.526;2023-07-02T10:26:55;4.67;;;4.00;;
22955;SDS011;40888;48.148;11.526;2023-07-02T10:29:26;5.23;;;4.03;;
22955;SDS011;40888;48.148;11.526;2023-07-02T10:31:56;5.70;;;3.63;;
22955;SDS011;40888;48.148;11.526;2023-07-02T10:34:32;6.10;;;3.95;;
22955;SDS011;40888;48.148;11.526;2023-07-02T10:37:02;6.07;;;4.13;;
22955;SDS011;40888;48.148;11.526;2023-07-02T10:39:29;5.65;;;4.22;;
22955;SDS011;40888;48.148;11.526;2023-07-02T10:44:57;6.03;;;4.63;;
22955;SDS011;40888;48.148;11.526;2023-07-02T10:47:22;8.25;;;5.20;;
22955;SDS011;40888;48.148;11.526;2023-07-02T10:49:47;7.47;;;4.95;;
22955;SDS011;40888;48.148;11.526;2023-07-02T10:52:13;9.32;;;5.18;;
22955;SDS011;40888;48.148;11.526;2023-07-02T10:57:09;6.97;;;4.93;;
22955;SDS011;40888;48.148;11.526;2023-07-02T10:59:37;7.53;;;5.40;;
22955;SDS011;40888;48.148;11.526;2023-07-02T11:02:02;7.82;;;5.47;;
22955;SDS011;40888;48.148;11.526;2023-07-02T11:04:29;10.02;;;5.32;;
22955;SDS011;40888;48.148;11.526;2023-07-02T11:06:56;7.95;;;5.32;;
22955;SDS011;40888;48.148;11.526;2023-07-02T11:09:22;7.88;;;5.38;;
22955;SDS011;40888;48.148;11.526;2023-07-02T11:11:59;7.05;;;5.88;;
22955;SDS011;40888;48.148;11.526;2023-07-02T11:14:29;8.82;;;5.90;;
22955;SDS011;40888;48.148;11.526;2023-07-02T11:16:57;7.22;;;5.70;;
22955;SDS011;40888;48.148;11.526;2023-07-02T11:19:23;11.05;;;6.50;;
22955;SDS011;40888;48.148;11.526;2023-07-02T11:21:54;8.48;;;6.40;;
22955;SDS011;40888;48.148;11.526;2023-07-02T11:27:01;8.48;;;7.00;;
22955;SDS011;40888;48.148;11.526;2023-07-02T11:29:30;12.75;;;7.53;;
22955;SDS011;40888;48.148;11.526;2023-07-02T11:32:10;10.63;;;7.20;;
22955;SDS011;40888;48.148;11.526;2023-07-02T11:34:37;11.32;;;7.47;;
22955;SDS011;40888;48.148;11.526;2023-07-02T11:37:03;11.68;;;7.20;;
22955;SDS011;40888;48.148;11.526;2023-07-02T11:39:30;11.23;;;6.93;;
22955;SDS011;40888;48.148;11.526;2023-07-02T11:41:56;9.90;;;7.45;;
22955;SDS011;40888;48.148;11.526;2023-07-02T11:44:22;10.80;;;7.82;;
22955;SDS011;40888;48.148;11.526;2023-07-02T11:46:48;13.88;;;8.07;;
22955;SDS011;40888;48.148;11.526;2023-07-02T11:49:14;13.82;;;8.15;;
22955;SDS011;40888;48.148;11.526;2023-07-02T11:51:40;10.45;;;7.60;;
22955;SDS011;40888;48.148;11.526;2023-07-02T11:54:06;10.90;;;7.20;;
22955;SDS011;40888;48.148;11.526;2023-07-02T11:56:32;11.88;;;7.93;;
22955;SDS011;40888;48.148;11.526;2023-07-02T11:58:59;11.23;;;8.13;;
22955;SDS011;40888;48.148;11.526;2023-07-02T12:01:25;11.30;;;7.95;;
22955;SDS011;40888;48.148;11.526;2023-07-02T12:03:50;10.32;;;8.10;;
22955;SDS011;40888;48.148;11.526;2023-07-02T12:06:16;14.07;;;8.07;;
22955;SDS011;40888;48.148;11.526;2023-07-02T12:08:42;11.52;;;7.43;;
22955;SDS011;40888;48.148;11.526;2023-07-02T12:11:08;10.38;;;8.05;;
22955;SDS011;40888;48.148;11.526;2023-07-02T12:13:34;11.60;;;7.53;;
22955;SDS011;40888;48.148;11.526;2023-07-02T12:16:00;12.93;;;8.68;;
22955;SDS011;40888;48.148;11.526;2023-07-02T12:18:26;12.45;;;8.63;;
22955;SDS011;40888;48.148;11.526;2023-07-02T12:20:51;13.45;;;8.70;;
22955;SDS011;40888;48.148;11.526;2023-07-02T12:23:17;11.27;;;8.73;;
22955;SDS011;40888;48.148;11.526;2023-07-02T12:25:43;12.10;;;8.85;;
22955;SDS011;40888;48.148;11.526;2023-07-02T12:28:09;13.45;;;9.05;;
22955;SDS011;40888;48.148;11.526;2023-07-02T12:30:34;13.35;;;9.35;;
22955;SDS011;40888;48.148;11.526;2023-07-02T12:33:00;10.93;;;8.85;;
22955;SDS011;40888;48.148;11.526;2023-07-02T12:35:26;12.02;;;8.68;;
22955;SDS011;40888;48.148;11.526;2023-07-02T12:37:52;13.48;;;10.63;;
22955;SDS011;40888;48.148;11.526;2023-07-02T12:40:21;16.35;;;9.75;;
22955;SDS011;40888;48.148;11.526;2023-07-02T12:42:47;14.60;;;9.65;;
22955;SDS011;40888;48.148;11.526;2023-07-02T12:45:15;12.98;;;9.77;;
22955;SDS011;40888;48.148;11.526;2023-07-02T12:47:41;15.30;;;10.82;;
22955;SDS011;40888;48.148;11.526;2023-07-02T12:50:08;14.82;;;10.15;;
22955;SDS011;40888;48.148;11.526;2023-07-02T12:52:35;12.00;;;9.35;;
22955;SDS011;40888;48.148;11.526;2023-07-02T12:55:00;14.50;;;10.77;;
22955;SDS011;40888;48.148;11.526;2023-07-02T12:57:27;15.63;;;11.02;;
22955;SDS011;40888;48.148;11.526;2023-07-02T12:59:53;16.13;;;11.65;;
22955;SDS011;40888;48.148;11.526;2023-07-02T13:02:20;16.20;;;11.02;;
22955;SDS011;40888;48.148;11.526;2023-07-02T13:04:46;15.18;;;11.05;;
22955;SDS011;40888;48.148;11.526;2023-07-02T13:07:12;16.42;;;11.70;;
22955;SDS011;40888;48.148;11.526;2023-07-02T13:09:37;17.77;;;11.90;;
22955;SDS011;40888;48.148;11.526;2023-07-02T13:12:04;14.20;;;10.82;;
22955;SDS011;40888;48.148;11.526;2023-07-02T13:14:30;17.17;;;12.45;;
22955;SDS011;40888;48.148;11.526;2023-07-02T13:16:56;13.18;;;10.80;;
22955;SDS011;40888;48.148;11.526;2023-07-02T13:19:24;17.00;;;11.52;;
22955;SDS011;40888;48.148;11.526;2023-07-02T13:21:50;15.95;;;11.00;;
22955;SDS011;40888;48.148;11.526;2023-07-02T13:24:15;15.73;;;12.25;;
22955;SDS011;40888;48.148;11.526;2023-07-02T13:26:41;17.13;;;12.07;;
22955;SDS011;40888;48.148;11.526;2023-07-02T13:29:07;17.55;;;11.43;;
22955;SDS011;40888;48.148;11.526;2023-07-02T13:31:33;15.95;;;11.95;;
22955;SDS011;40888;48.148;11.526;2023-07-02T13:33:58;15.75;;;12.15;;
22955;SDS011;40888;48.148;11.526;2023-07-02T13:36:24;16.95;;;11.57;;
22955;SDS011;40888;48.148;11.526;2023-07-02T13:38:50;14.23;;;11.57;;
22955;SDS011;40888;48.148;11.526;2023-07-02T13:41:15;15.98;;;11.57;;
22955;SDS011;40888;48.148;11.526;2023-07-02T13:43:41;16.77;;;12.00;;
22955;SDS011;40888;48.148;11.526;2023-07-02T13:46:07;15.45;;;11.73;;
22955;SDS011;40888;48.148;11.526;2023-07-02T13:48:32;16.88;;;12.30;;
22955;SDS011;40888;48.148;11.526;2023-07-02T13:51:00;17.48;;;12.30;;
22955;SDS011;40888;48.148;11.526;2023-07-02T13:53:26;18.48;;;13.10;;
22955;SDS011;40888;48.148;11.526;2023-07-02T13:55:51;17.58;;;12.07;;
22955;SDS011;40888;48.148;11.526;2023-07-02T13:58:17;15.20;;;11.60;;
22955;SDS011;40888;48.148;11.526;2023-07-02T14:00:43;17.13;;;11.90;;
22955;SDS011;40888;48.148;11.526;2023-07-02T14:03:08;16.10;;;12.20;;
22955;SDS011;40888;48.148;11.526;2023-07-02T14:05:34;15.52;;;11.98;;
22955;SDS011;40888;48.148;11.526;2023-07-02T14:08:00;20.17;;;12.60;;
22955;SDS011;40888;48.148;11.526;2023-07-02T14:10:25;17.50;;;11.82;;
22955;SDS011;40888;48.148;11.526;2023-07-02T14:12:53;18.13;;;12.77;;
22955;SDS011;40888;48.148;11.526;2023-07-02T14:15:19;18.08;;;13.30;;
22955;SDS011;40888;48.148;11.526;2023-07-02T14:17:46;16.77;;;13.00;;
22955;SDS011;40888;48.148;11.526;2023-07-02T14:20:12;18.38;;;13.57;;
22955;SDS011;40888;48.148;11.526;2023-07-02T14:22:38;19.48;;;14.18;;
22955;SDS011;40888;48.148;11.526;2023-07-02T14:25:03;19.27;;;13.23;;
22955;SDS011;40888;48.148;11.526;2023-07-02T14:27:29;17.75;;;14.38;;
22955;SDS011;40888;48.148;11.526;2023-07-02T14:29:55;16.52;;;14.23;;
22955;SDS011;40888;48.148;11.526;2023-07-02T14:32:22;20.75;;;14.38;;
22955;SDS011;40888;48.148;11.526;2023-07-02T14:34:48;20.20;;;13.48;;
22955;SDS011;40888;48.148;11.526;2023-07-02T14:37:13;19.83;;;14.13;;